lernenhoch2.de alexa rank chart, lernenhoch2.de alexa rank daily changes

lernenhoch2.de alexa rank chart, lernenhoch2.de alexa rank daily changes

lernenhoch2.de
Actual rank:
376 895

RANK HISTORY

Date Rank Diff
2017/05/29 376 895 +1 179
2017/05/28 375 716 -13 975
2017/05/27 389 691 -4 954
2017/05/26 394 645 +10 883
2017/05/25 383 762 +443
2017/05/24 383 319 +473
2017/05/23 382 846 -4 612
2017/05/22 387 458 +6 535
2017/05/21 380 923 -8 478
2017/05/20 389 401 -9 459
2017/05/19 398 860 -2 621
2017/05/18 401 481 -23 167
2017/05/17 424 648 +14 638
2017/05/16 410 010 +4 492
2017/05/15 405 518 -6 639
2017/05/14 412 157 +8 918
2017/05/13 403 239 -8 571
2017/05/12 411 810 +29 244
2017/05/11 382 566 -7 005
2017/05/10 389 571 -20 807
2017/05/09 410 378 +5 775
2017/05/08 404 603 +3 189
2017/05/07 401 414 +4 161
2017/05/06 397 253 +10 965
2017/05/05 386 288 -3 686
2017/05/04 389 974 -2 267
2017/05/03 392 241 -3 378
2017/05/02 395 619 +12 025
2017/05/01 383 594 -9 627
2017/04/30 393 221 +3 805
2017/04/29 389 416 +824
2017/04/28 388 592 -2 541
2017/04/27 391 133 +26 924
2017/04/26 364 209 -1 926
2017/04/25 366 135 +612
2017/04/24 365 523 -1 263
2017/04/23 366 786 +6 237
2017/04/22 360 549 -727
2017/04/21 361 276 +5 748
2017/04/20 355 528 +11 054
2017/04/19 344 474 +3 280
2017/04/18 341 194 +7 519
2017/04/17 333 675 +2 331
2017/04/16 331 344 +4 073
2017/04/15 327 271 +3 767
2017/04/14 323 504 -7 242
2017/04/13 330 746 +3 362
2017/04/12 327 384 -7 131
2017/04/11 334 515 +4 033
2017/04/10 330 482 +18 011
2017/04/09 312 471 +4 114
2017/04/08 308 357 -5 428
2017/04/07 313 785 +351
2017/04/06 313 434 -764
2017/04/05 314 198 -2 345
2017/04/04 316 543 +11 982
2017/04/03 304 561 +7 861
2017/04/02 296 700 +3 108
2017/04/01 293 592 -2 219
2017/03/31 295 811 -5 382
2017/03/30 301 193

WIDGET FOR YOUR SITE

DOMAINS WITH THE NEAREST RANK

Domain Rank
agrodom.com 376 890
com.over-blog.com 376 891
g-ro.com 376 892
pchelplinebd.com 376 893
analytics.com 376 894
lernenhoch2.de 376 895
templejc.edu 376 896
enternow.it 376 897
kinetic-revolution.com 376 898
english03.ru 376 899
btc-box.top 376 900

DOMAINS WITH THE NEAREST RANK BY TLD .de

Domain Rank
tuerenheld.de 376 795
fitnessuebungen-zuhause.de 376 796
allesfuermich.de 376 798
bergtour-online.de 376 843
slogans.de 376 876
lernenhoch2.de 376 895
papstar-shop.de 376 951
englisch-lernen-online.de 376 953
lendico.de 377 132
hoehenrausch.de 377 158
netz98.de 377 208